createdAt,value
2022-09-11T00:00:06.882Z,1008.54
2022-09-11T00:01:06.857Z,1008.55
2022-09-11T00:02:06.949Z,1008.57
2022-09-11T00:03:06.862Z,1008.56
2022-09-11T00:04:06.844Z,1008.58
2022-09-11T00:05:06.819Z,1008.56
2022-09-11T00:06:06.815Z,1008.60
2022-09-11T00:07:06.816Z,1008.61
2022-09-11T00:08:06.786Z,1008.61
2022-09-11T00:09:06.769Z,1008.59
2022-09-11T00:10:06.757Z,1008.58
2022-09-11T00:11:06.750Z,1008.56
2022-09-11T00:12:06.777Z,1008.57
2022-09-11T00:13:06.729Z,1008.58
2022-09-11T00:14:06.709Z,1008.59
2022-09-11T00:15:06.716Z,1008.58
2022-09-11T00:16:06.812Z,1008.53
2022-09-11T00:17:06.676Z,1008.59
2022-09-11T00:18:06.670Z,1008.55
2022-09-11T00:19:06.701Z,1008.59
2022-09-11T00:20:06.664Z,1008.58
2022-09-11T00:21:06.637Z,1008.57
2022-09-11T00:22:06.647Z,1008.55
2022-09-11T00:23:06.614Z,1008.57
2022-09-11T00:24:06.603Z,1008.60
2022-09-11T00:25:06.595Z,1008.54
2022-09-11T00:26:06.590Z,1008.53
2022-09-11T00:27:06.571Z,1008.50
2022-09-11T00:28:06.590Z,1008.54
2022-09-11T00:29:06.550Z,1008.57
2022-09-11T00:30:06.587Z,1008.52
2022-09-11T00:31:06.567Z,1008.57
2022-09-11T00:32:06.525Z,1008.53
2022-09-11T00:33:06.506Z,1008.53
2022-09-11T00:34:06.532Z,1008.57
2022-09-11T00:35:06.500Z,1008.54
2022-09-11T00:36:06.485Z,1008.59
2022-09-11T00:37:06.485Z,1008.54
2022-09-11T00:38:06.486Z,1008.55
2022-09-11T00:39:06.439Z,1008.57
2022-09-11T00:40:06.505Z,1008.56
2022-09-11T00:41:06.421Z,1008.53
2022-09-11T00:42:06.432Z,1008.51
2022-09-11T00:43:06.391Z,1008.49
2022-09-11T00:44:06.392Z,1008.53
2022-09-11T00:45:06.387Z,1008.55
2022-09-11T00:46:06.457Z,1008.54
2022-09-11T00:47:06.343Z,1008.56
2022-09-11T00:48:06.350Z,1008.52
2022-09-11T00:49:06.345Z,1008.55
2022-09-11T00:50:06.323Z,1008.56
2022-09-11T00:51:06.308Z,1008.58
2022-09-11T00:52:06.342Z,1008.57
2022-09-11T00:53:06.283Z,1008.64
2022-09-11T00:54:06.282Z,1008.64
2022-09-11T00:55:06.260Z,1008.62
2022-09-11T00:56:06.261Z,1008.61
2022-09-11T00:57:06.256Z,1008.61
2022-09-11T00:58:06.241Z,1008.64
2022-09-11T00:59:06.229Z,1008.64
2022-09-11T01:00:06.210Z,1008.65
2022-09-11T01:01:06.255Z,1008.63
2022-09-11T01:02:06.265Z,1008.66
2022-09-11T01:03:06.180Z,1008.65
2022-09-11T01:04:06.172Z,1008.65
2022-09-11T01:05:06.154Z,1008.69
2022-09-11T01:06:06.150Z,1008.67
2022-09-11T01:07:06.140Z,1008.66
2022-09-11T01:08:06.139Z,1008.64
2022-09-11T01:09:06.125Z,1008.67
2022-09-11T01:10:06.097Z,1008.64
2022-09-11T01:11:06.086Z,1008.69
2022-09-11T01:12:06.070Z,1008.69
2022-09-11T01:13:06.074Z,1008.70
2022-09-11T01:14:06.059Z,1008.72
2022-09-11T01:15:06.041Z,1008.68
2022-09-11T01:16:06.132Z,1008.71
2022-09-11T01:17:06.024Z,1008.70
2022-09-11T01:18:06.009Z,1008.70
2022-09-11T01:19:06.028Z,1008.68
2022-09-11T01:20:05.994Z,1008.72
2022-09-11T01:21:05.967Z,1008.71
2022-09-11T01:22:05.962Z,1008.73
2022-09-11T01:23:05.998Z,1008.73
2022-09-11T01:24:05.962Z,1008.71
2022-09-11T01:25:05.946Z,1008.76
2022-09-11T01:26:05.914Z,1008.76
2022-09-11T01:27:05.905Z,1008.76
2022-09-11T01:28:05.927Z,1008.77
2022-09-11T01:29:05.887Z,1008.81
2022-09-11T01:30:10.878Z,1008.82
2022-09-11T01:31:06.927Z,1008.78
2022-09-11T01:32:05.861Z,1008.76
2022-09-11T01:33:05.846Z,1008.72
2022-09-11T01:34:05.839Z,1008.73
2022-09-11T01:35:05.827Z,1008.74
2022-09-11T01:36:05.811Z,1008.78
2022-09-11T01:37:05.799Z,1008.75
2022-09-11T01:38:05.802Z,1008.79
2022-09-11T01:39:05.776Z,1008.78
2022-09-11T01:40:05.818Z,1008.78
2022-09-11T01:41:05.776Z,1008.79
2022-09-11T01:42:05.737Z,1008.83
2022-09-11T01:43:05.748Z,1008.88
2022-09-11T01:44:05.719Z,1008.84
2022-09-11T01:45:05.712Z,1008.85
2022-09-11T01:46:05.733Z,1008.87
2022-09-11T01:47:05.701Z,1008.94
2022-09-11T01:48:05.716Z,1008.89
2022-09-11T01:49:05.669Z,1008.93
2022-09-11T01:50:05.690Z,1008.90
2022-09-11T01:51:05.648Z,1008.95
2022-09-11T01:52:05.640Z,1008.93
2022-09-11T01:53:05.664Z,1008.97
2022-09-11T01:54:05.606Z,1008.97
2022-09-11T01:55:05.593Z,1008.94
2022-09-11T01:56:05.611Z,1008.93
2022-09-11T01:57:05.603Z,1008.98
2022-09-11T01:58:05.558Z,1008.99
2022-09-11T01:59:05.583Z,1009.01
2022-09-11T02:00:05.535Z,1008.98
2022-09-11T02:01:05.608Z,1009.00
2022-09-11T02:02:05.742Z,1009.02
2022-09-11T02:03:05.508Z,1009.02
2022-09-11T02:04:05.499Z,1009.05
2022-09-11T02:05:05.493Z,1009.07
2022-09-11T02:06:05.469Z,1009.05
2022-09-11T02:07:05.459Z,1009.05
2022-09-11T02:08:05.468Z,1009.05
2022-09-11T02:09:05.488Z,1009.10
2022-09-11T02:10:05.447Z,1009.07
2022-09-11T02:11:05.448Z,1009.06
2022-09-11T02:12:05.434Z,1009.02
2022-09-11T02:13:05.393Z,1009.08
2022-09-11T02:14:05.399Z,1009.06
2022-09-11T02:15:05.391Z,1009.07
2022-09-11T02:16:05.448Z,1009.05
2022-09-11T02:17:05.396Z,1009.05
2022-09-11T02:18:05.337Z,1009.03
2022-09-11T02:19:05.357Z,1009.06
2022-09-11T02:20:05.327Z,1009.08
2022-09-11T02:21:05.325Z,1009.08
2022-09-11T02:22:05.295Z,1009.07
2022-09-11T02:23:05.295Z,1009.06
2022-09-11T02:24:05.289Z,1009.10
2022-09-11T02:25:05.278Z,1009.09
2022-09-11T02:26:05.258Z,1009.09
2022-09-11T02:27:05.259Z,1009.11
2022-09-11T02:28:05.261Z,1009.11
2022-09-11T02:29:05.219Z,1009.12
2022-09-11T02:30:05.217Z,1009.14
2022-09-11T02:31:05.259Z,1009.10
2022-09-11T02:32:05.191Z,1009.10
2022-09-11T02:33:05.198Z,1009.07
2022-09-11T02:34:05.190Z,1009.15
2022-09-11T02:35:05.151Z,1009.13
2022-09-11T02:36:05.143Z,1009.17
2022-09-11T02:37:05.145Z,1009.17
2022-09-11T02:38:05.142Z,1009.20
2022-09-11T02:39:05.137Z,1009.18
2022-09-11T02:40:05.131Z,1009.18
2022-09-11T02:41:05.095Z,1009.26
2022-09-11T02:42:05.087Z,1009.25
2022-09-11T02:43:05.088Z,1009.26
2022-09-11T02:44:05.073Z,1009.23
2022-09-11T02:45:05.070Z,1009.20
2022-09-11T02:46:05.052Z,1009.26
2022-09-11T02:47:05.017Z,1009.21
2022-09-11T02:48:05.029Z,1009.27
2022-09-11T02:49:05.002Z,1009.25
2022-09-11T02:50:04.992Z,1009.26
2022-09-11T02:51:04.994Z,1009.28
2022-09-11T02:52:04.970Z,1009.26
2022-09-11T02:53:04.959Z,1009.29
2022-09-11T02:54:04.949Z,1009.25
2022-09-11T02:55:04.942Z,1009.25
2022-09-11T02:56:04.943Z,1009.27
2022-09-11T02:57:04.915Z,1009.24
2022-09-11T02:58:04.915Z,1009.28
2022-09-11T02:59:04.912Z,1009.27
2022-09-11T03:00:04.901Z,1009.30
2022-09-11T03:01:04.954Z,1009.28
2022-09-11T03:02:04.887Z,1009.26
2022-09-11T03:03:04.848Z,1009.31
2022-09-11T03:04:04.831Z,1009.27
2022-09-11T03:05:04.836Z,1009.25
2022-09-11T03:06:04.818Z,1009.28
2022-09-11T03:07:04.865Z,1009.26
2022-09-11T03:08:04.789Z,1009.28
2022-09-11T03:09:04.795Z,1009.28
2022-09-11T03:10:04.773Z,1009.28
2022-09-11T03:11:04.802Z,1009.28
2022-09-11T03:12:04.767Z,1009.31
2022-09-11T03:13:04.741Z,1009.27
2022-09-11T03:14:04.728Z,1009.33
2022-09-11T03:15:04.712Z,1009.35
2022-09-11T03:16:04.816Z,1009.43
2022-09-11T03:17:04.809Z,1009.37
2022-09-11T03:18:04.701Z,1009.42
2022-09-11T03:19:04.670Z,1009.48
2022-09-11T03:20:04.660Z,1009.47
2022-09-11T03:21:04.640Z,1009.45
2022-09-11T03:22:04.628Z,1009.48
2022-09-11T03:23:04.656Z,1009.42
2022-09-11T03:24:04.615Z,1009.47
2022-09-11T03:25:04.608Z,1009.39
2022-09-11T03:26:04.692Z,1009.39
2022-09-11T03:27:04.596Z,1009.43
2022-09-11T03:28:04.568Z,1009.45
2022-09-11T03:29:04.576Z,1009.48
2022-09-11T03:30:04.560Z,1009.46
2022-09-11T03:31:04.536Z,1009.44
2022-09-11T03:32:04.543Z,1009.48
2022-09-11T03:33:04.506Z,1009.46
2022-09-11T03:34:04.554Z,1009.47
2022-09-11T03:35:04.489Z,1009.47
2022-09-11T03:36:04.485Z,1009.44
2022-09-11T03:37:04.469Z,1009.41
2022-09-11T03:38:04.461Z,1009.42
2022-09-11T03:39:04.453Z,1009.41
2022-09-11T03:40:04.500Z,1009.44
2022-09-11T03:41:04.452Z,1009.49
2022-09-11T03:42:04.420Z,1009.49
2022-09-11T03:43:04.404Z,1009.46
2022-09-11T03:44:04.391Z,1009.47
2022-09-11T03:45:04.390Z,1009.52
2022-09-11T03:46:04.407Z,1009.47
2022-09-11T03:47:04.352Z,1009.50
2022-09-11T03:48:04.373Z,1009.52
2022-09-11T03:49:04.337Z,1009.53
2022-09-11T03:50:04.328Z,1009.48
2022-09-11T03:51:04.326Z,1009.45
2022-09-11T03:52:04.307Z,1009.45
2022-09-11T03:53:04.693Z,1009.41
2022-09-11T03:54:04.294Z,1009.40
2022-09-11T03:55:04.275Z,1009.43
2022-09-11T03:56:04.303Z,1009.45
2022-09-11T03:57:04.255Z,1009.43
2022-09-11T03:58:04.236Z,1009.47
2022-09-11T03:59:04.230Z,1009.50
2022-09-11T04:00:04.217Z,1009.53
2022-09-11T04:01:04.242Z,1009.49
2022-09-11T04:02:04.240Z,1009.55
2022-09-11T04:03:04.191Z,1009.55
2022-09-11T04:04:04.204Z,1009.50
2022-09-11T04:05:04.172Z,1009.56
2022-09-11T04:06:04.140Z,1009.51
2022-09-11T04:07:04.156Z,1009.55
2022-09-11T04:08:04.127Z,1009.54
2022-09-11T04:09:04.118Z,1009.60
2022-09-11T04:10:04.105Z,1009.57
2022-09-11T04:11:04.090Z,1009.57
2022-09-11T04:12:04.100Z,1009.59
2022-09-11T04:13:04.108Z,1009.58
2022-09-11T04:14:04.083Z,1009.61
2022-09-11T04:15:04.063Z,1009.61
2022-09-11T04:16:04.090Z,1009.56
2022-09-11T04:17:04.067Z,1009.57
2022-09-11T04:18:05.583Z,1009.57
2022-09-11T04:19:04.016Z,1009.60
2022-09-11T04:20:04.021Z,1009.59
2022-09-11T04:21:04.029Z,1009.62
2022-09-11T04:22:03.997Z,1009.63
2022-09-11T04:23:03.974Z,1009.63
2022-09-11T04:24:03.956Z,1009.61
2022-09-11T04:25:03.931Z,1009.63
2022-09-11T04:26:03.952Z,1009.62
2022-09-11T04:27:03.908Z,1009.61
2022-09-11T04:28:03.928Z,1009.68
2022-09-11T04:29:03.946Z,1009.65
2022-09-11T04:30:03.882Z,1009.62
2022-09-11T04:31:03.871Z,1009.60
2022-09-11T04:32:03.891Z,1009.64
2022-09-11T04:33:03.850Z,1009.65
2022-09-11T04:34:03.849Z,1009.66
2022-09-11T04:35:03.844Z,1009.66
2022-09-11T04:36:03.858Z,1009.69
2022-09-11T04:37:03.808Z,1009.69
2022-09-11T04:38:03.804Z,1009.67
2022-09-11T04:39:03.774Z,1009.66
2022-09-11T04:40:03.802Z,1009.72
2022-09-11T04:41:03.758Z,1009.71
2022-09-11T04:42:03.753Z,1009.70
2022-09-11T04:43:03.747Z,1009.71
2022-09-11T04:44:05.555Z,1009.73
2022-09-11T04:45:03.720Z,1009.73
2022-09-11T04:46:03.739Z,1009.74
2022-09-11T04:47:03.711Z,1009.71
2022-09-11T04:48:03.719Z,1009.78
2022-09-11T04:49:03.691Z,1009.78
2022-09-11T04:50:03.665Z,1009.78
2022-09-11T04:51:03.648Z,1009.82
2022-09-11T04:52:03.657Z,1009.77
2022-09-11T04:53:03.629Z,1009.83
2022-09-11T04:54:03.632Z,1009.83
2022-09-11T04:55:03.672Z,1009.78
2022-09-11T04:56:03.585Z,1009.80
2022-09-11T04:57:03.591Z,1009.75
2022-09-11T04:58:03.562Z,1009.77
2022-09-11T04:59:03.560Z,1009.75
2022-09-11T05:00:03.557Z,1009.81
2022-09-11T05:01:03.579Z,1009.77
2022-09-11T05:02:03.667Z,1009.82
2022-09-11T05:03:03.525Z,1009.84
2022-09-11T05:04:03.506Z,1009.81
2022-09-11T05:05:03.493Z,1009.86
2022-09-11T05:06:03.500Z,1009.85
2022-09-11T05:07:03.471Z,1009.91
2022-09-11T05:08:03.479Z,1009.90
2022-09-11T05:09:03.451Z,1009.90
2022-09-11T05:10:03.458Z,1009.87
2022-09-11T05:11:03.437Z,1009.89
2022-09-11T05:12:03.415Z,1009.90
2022-09-11T05:13:03.396Z,1009.92
2022-09-11T05:14:03.393Z,1009.95
2022-09-11T05:15:03.372Z,1009.92
2022-09-11T05:16:03.459Z,1009.94
2022-09-11T05:17:03.361Z,1009.93
2022-09-11T05:18:03.371Z,1009.98
2022-09-11T05:19:03.329Z,1009.97
2022-09-11T05:20:03.361Z,1009.96
2022-09-11T05:21:03.311Z,1009.98
2022-09-11T05:22:03.304Z,1010.00
2022-09-11T05:23:03.283Z,1010.02
2022-09-11T05:24:03.319Z,1010.00
2022-09-11T05:25:03.265Z,1010.08
2022-09-11T05:26:03.249Z,1010.05
2022-09-11T05:27:03.245Z,1010.07
2022-09-11T05:28:03.251Z,1010.06
2022-09-11T05:29:03.236Z,1010.14
2022-09-11T05:30:03.220Z,1010.10
2022-09-11T05:31:03.215Z,1010.17
2022-09-11T05:32:03.200Z,1010.14
2022-09-11T05:33:03.185Z,1010.15
2022-09-11T05:34:03.189Z,1010.15
2022-09-11T05:35:03.164Z,1010.16
2022-09-11T05:36:03.163Z,1010.18
2022-09-11T05:37:03.144Z,1010.15
2022-09-11T05:38:03.155Z,1010.20
2022-09-11T05:39:03.106Z,1010.22
2022-09-11T05:40:03.163Z,1010.24
2022-09-11T05:41:03.085Z,1010.24
2022-09-11T05:42:03.104Z,1010.25
2022-09-11T05:43:03.061Z,1010.24
2022-09-11T05:44:03.062Z,1010.31
2022-09-11T05:45:03.055Z,1010.28
2022-09-11T05:46:03.092Z,1010.32
2022-09-11T05:47:03.019Z,1010.33
2022-09-11T05:48:03.038Z,1010.34
2022-09-11T05:49:03.005Z,1010.33
2022-09-11T05:50:02.986Z,1010.40
2022-09-11T05:51:02.991Z,1010.44
2022-09-11T05:52:02.963Z,1010.35
2022-09-11T05:53:02.983Z,1010.32
2022-09-11T05:54:02.956Z,1010.39
2022-09-11T05:55:02.967Z,1010.36
2022-09-11T05:56:02.946Z,1010.41
2022-09-11T05:57:07.440Z,1010.42
2022-09-11T05:58:02.901Z,1010.44
2022-09-11T05:59:02.888Z,1010.46
2022-09-11T06:00:02.896Z,1010.42
2022-09-11T06:01:02.897Z,1010.44
2022-09-11T06:02:02.915Z,1010.48
2022-09-11T06:03:02.839Z,1010.53
2022-09-11T06:04:02.851Z,1010.50
2022-09-11T06:05:02.844Z,1010.48
2022-09-11T06:06:02.805Z,1010.51
2022-09-11T06:07:02.845Z,1010.55
2022-09-11T06:08:02.794Z,1010.53
2022-09-11T06:09:02.840Z,1010.60
2022-09-11T06:10:03.581Z,1010.60
2022-09-11T06:11:02.750Z,1010.63
2022-09-11T06:12:02.779Z,1010.63
2022-09-11T06:13:02.741Z,1010.66
2022-09-11T06:14:02.740Z,1010.61
2022-09-11T06:15:02.704Z,1010.69
2022-09-11T06:16:02.694Z,1010.70
2022-09-11T06:17:02.711Z,1010.69
2022-09-11T06:18:02.683Z,1010.71
2022-09-11T06:19:02.672Z,1010.71
2022-09-11T06:20:02.655Z,1010.76
2022-09-11T06:21:02.673Z,1010.74
2022-09-11T06:22:02.625Z,1010.75
2022-09-11T06:23:06.082Z,1010.82
2022-09-11T06:24:03.623Z,1010.78
2022-09-11T06:25:02.593Z,1010.81
2022-09-11T06:26:02.590Z,1010.84
2022-09-11T06:27:02.591Z,1010.85
2022-09-11T06:28:02.588Z,1010.78
2022-09-11T06:29:02.547Z,1010.85
2022-09-11T06:30:02.541Z,1010.81
2022-09-11T06:31:02.560Z,1010.87
2022-09-11T06:32:02.528Z,1010.83
2022-09-11T06:33:02.521Z,1010.85
2022-09-11T06:34:02.496Z,1010.84
2022-09-11T06:35:02.481Z,1010.81
2022-09-11T06:36:02.493Z,1010.82
2022-09-11T06:37:02.485Z,1010.87
2022-09-11T06:38:02.460Z,1010.88
2022-09-11T06:39:02.446Z,1010.88
2022-09-11T06:40:02.503Z,1010.89
2022-09-11T06:41:02.428Z,1010.90
2022-09-11T06:42:02.431Z,1010.96
2022-09-11T06:43:02.392Z,1010.88
2022-09-11T06:44:02.405Z,1010.88
2022-09-11T06:45:02.383Z,1010.91
2022-09-11T06:46:02.394Z,1010.93
2022-09-11T06:47:02.358Z,1010.92
2022-09-11T06:48:02.368Z,1010.97
2022-09-11T06:49:02.333Z,1010.99
2022-09-11T06:50:02.345Z,1010.98
2022-09-11T06:51:02.316Z,1010.99
2022-09-11T06:52:02.295Z,1011.03
2022-09-11T06:53:02.301Z,1011.00
2022-09-11T06:54:02.283Z,1011.06
2022-09-11T06:55:02.288Z,1011.04
2022-09-11T06:56:02.252Z,1010.96
2022-09-11T06:57:02.267Z,1010.99
2022-09-11T06:58:02.243Z,1011.02
2022-09-11T06:59:02.224Z,1011.03
2022-09-11T07:00:02.243Z,1011.03
2022-09-11T07:01:02.343Z,1011.03
2022-09-11T07:02:02.351Z,1011.07
2022-09-11T07:03:02.192Z,1010.99
2022-09-11T07:04:02.174Z,1010.99
2022-09-11T07:05:02.175Z,1010.99
2022-09-11T07:06:02.139Z,1011.02
2022-09-11T07:07:02.160Z,1011.06
2022-09-11T07:08:02.125Z,1011.04
2022-09-11T07:09:02.107Z,1011.08
2022-09-11T07:10:02.107Z,1011.06
2022-09-11T07:11:02.098Z,1011.06
2022-09-11T07:12:02.088Z,1011.04
2022-09-11T07:13:02.082Z,1011.04
2022-09-11T07:14:02.051Z,1011.06
2022-09-11T07:15:02.057Z,1011.05
2022-09-11T07:16:02.052Z,1011.04
2022-09-11T07:17:02.034Z,1011.09
2022-09-11T07:18:02.067Z,1011.05
2022-09-11T07:19:02.025Z,1011.03
2022-09-11T07:20:01.993Z,1011.06
2022-09-11T07:21:01.985Z,1011.07
2022-09-11T07:22:02.012Z,1011.10
2022-09-11T07:23:01.962Z,1011.08
2022-09-11T07:24:01.958Z,1011.11
2022-09-11T07:25:04.690Z,1011.08
2022-09-11T07:26:02.923Z,1011.11
2022-09-11T07:27:01.924Z,1011.16
2022-09-11T07:28:01.905Z,1011.12
2022-09-11T07:29:01.908Z,1011.11
2022-09-11T07:30:01.881Z,1011.10
2022-09-11T07:31:01.931Z,1011.15
2022-09-11T07:32:01.905Z,1011.10
2022-09-11T07:33:01.839Z,1011.10
2022-09-11T07:34:01.847Z,1011.11
2022-09-11T07:35:01.821Z,1011.17
2022-09-11T07:36:01.812Z,1011.17
2022-09-11T07:37:01.805Z,1011.18
2022-09-11T07:38:01.802Z,1011.21
2022-09-11T07:39:01.776Z,1011.18
2022-09-11T07:40:01.839Z,1011.18
2022-09-11T07:41:01.758Z,1011.16
2022-09-11T07:42:01.761Z,1011.13
2022-09-11T07:43:01.800Z,1011.15
2022-09-11T07:44:01.732Z,1011.13
2022-09-11T07:45:01.712Z,1011.12
2022-09-11T07:46:01.733Z,1011.15
2022-09-11T07:47:01.686Z,1011.11
2022-09-11T07:48:01.704Z,1011.11
2022-09-11T07:49:01.683Z,1011.16
2022-09-11T07:50:01.667Z,1011.15
2022-09-11T07:51:01.657Z,1011.13
2022-09-11T07:52:01.657Z,1011.18
2022-09-11T07:53:01.628Z,1011.17
2022-09-11T07:54:01.626Z,1011.23
2022-09-11T07:55:01.608Z,1011.21
2022-09-11T07:56:01.608Z,1011.22
2022-09-11T07:57:01.586Z,1011.22
2022-09-11T07:58:01.572Z,1011.18
2022-09-11T07:59:01.567Z,1011.17
2022-09-11T08:00:01.556Z,1011.19
2022-09-11T08:01:01.566Z,1011.19
2022-09-11T08:02:01.577Z,1011.22
2022-09-11T08:03:01.530Z,1011.21
2022-09-11T08:04:01.537Z,1011.22
2022-09-11T08:05:01.502Z,1011.20
2022-09-11T08:06:01.475Z,1011.19
2022-09-11T08:07:01.465Z,1011.16
2022-09-11T08:08:01.462Z,1011.17
2022-09-11T08:09:01.450Z,1011.18
2022-09-11T08:10:23.698Z,1011.21
2022-09-11T08:11:02.452Z,1011.25
2022-09-11T08:12:01.409Z,1011.21
2022-09-11T08:13:01.406Z,1011.21
2022-09-11T08:14:01.400Z,1011.20
2022-09-11T08:15:01.376Z,1011.22
2022-09-11T08:16:01.390Z,1011.22
2022-09-11T08:17:01.393Z,1011.24
2022-09-11T08:18:01.364Z,1011.22
2022-09-11T08:19:01.362Z,1011.27
2022-09-11T08:20:01.350Z,1011.28
2022-09-11T08:21:01.328Z,1011.27
2022-09-11T08:22:01.345Z,1011.30
2022-09-11T08:23:01.287Z,1011.27
2022-09-11T08:24:01.295Z,1011.27
2022-09-11T08:25:01.301Z,1011.26
2022-09-11T08:26:01.261Z,1011.31
2022-09-11T08:27:01.267Z,1011.30
2022-09-11T08:28:01.246Z,1011.32
2022-09-11T08:29:01.251Z,1011.34
2022-09-11T08:30:01.217Z,1011.35
2022-09-11T08:31:01.243Z,1011.36
2022-09-11T08:32:02.511Z,1011.43
2022-09-11T08:33:01.183Z,1011.38
2022-09-11T08:34:01.180Z,1011.42
2022-09-11T08:35:01.166Z,1011.43
2022-09-11T08:36:01.174Z,1011.43
2022-09-11T08:37:01.157Z,1011.44
2022-09-11T08:38:01.122Z,1011.50
2022-09-11T08:39:01.122Z,1011.49
2022-09-11T08:40:01.176Z,1011.50
2022-09-11T08:41:01.100Z,1011.49
2022-09-11T08:42:01.093Z,1011.53
2022-09-11T08:43:01.082Z,1011.54
2022-09-11T08:44:01.055Z,1011.58
2022-09-11T08:45:01.050Z,1011.63
2022-09-11T08:46:01.132Z,1011.60
2022-09-11T08:47:01.023Z,1011.66
2022-09-11T08:48:01.009Z,1011.62
2022-09-11T08:49:01.019Z,1011.60
2022-09-11T08:50:00.987Z,1011.62
2022-09-11T08:51:00.993Z,1011.62
2022-09-11T08:52:00.988Z,1011.56
2022-09-11T08:53:00.996Z,1011.59
2022-09-11T08:54:00.951Z,1011.59
2022-09-11T08:55:00.951Z,1011.64
2022-09-11T08:56:00.929Z,1011.65
2022-09-11T08:57:00.925Z,1011.72
2022-09-11T08:58:00.900Z,1011.78
2022-09-11T08:59:00.909Z,1011.78
2022-09-11T09:00:00.880Z,1011.76
2022-09-11T09:01:00.965Z,1011.71
2022-09-11T09:02:00.882Z,1011.74
2022-09-11T09:03:00.859Z,1011.81
2022-09-11T09:04:00.836Z,1011.75
2022-09-11T09:05:00.838Z,1011.80
2022-09-11T09:06:00.892Z,1011.76
2022-09-11T09:07:00.815Z,1011.75
2022-09-11T09:08:00.810Z,1011.77
2022-09-11T09:09:00.790Z,1011.80
2022-09-11T09:10:00.774Z,1011.80
2022-09-11T09:11:00.799Z,1011.81
2022-09-11T09:12:00.760Z,1011.80
2022-09-11T09:13:00.734Z,1011.85
2022-09-11T09:14:00.725Z,1011.86
2022-09-11T09:15:00.727Z,1011.82
2022-09-11T09:16:00.750Z,1011.79
2022-09-11T09:17:00.715Z,1011.80
2022-09-11T09:18:00.683Z,1011.82
2022-09-11T09:19:00.680Z,1011.82
2022-09-11T09:20:00.680Z,1011.85
2022-09-11T09:21:00.656Z,1011.88
2022-09-11T09:22:00.658Z,1011.89
2022-09-11T09:23:00.631Z,1011.88
2022-09-11T09:24:00.647Z,1011.96
2022-09-11T09:25:00.601Z,1011.89
2022-09-11T09:26:00.604Z,1011.89
2022-09-11T09:27:00.606Z,1011.85
2022-09-11T09:28:00.568Z,1011.89
2022-09-11T09:29:00.562Z,1011.89
2022-09-11T09:30:00.565Z,1011.89
2022-09-11T09:31:00.593Z,1011.87
2022-09-11T09:32:00.600Z,1011.90
2022-09-11T09:33:00.527Z,1011.86
2022-09-11T09:34:00.508Z,1011.87
2022-09-11T09:35:00.494Z,1011.92
2022-09-11T09:36:00.508Z,1011.89
2022-09-11T09:37:00.489Z,1011.95
2022-09-11T09:38:00.467Z,1011.86
2022-09-11T09:39:00.449Z,1011.91
2022-09-11T09:40:00.526Z,1011.92
2022-09-11T09:41:00.437Z,1011.89
2022-09-11T09:42:00.426Z,1011.91
2022-09-11T09:43:00.434Z,1011.88
2022-09-11T09:44:00.423Z,1011.90
2022-09-11T09:45:00.393Z,1011.96
2022-09-11T09:46:00.442Z,1011.90
2022-09-11T09:47:00.379Z,1011.94
2022-09-11T09:48:00.358Z,1011.94
2022-09-11T09:49:00.343Z,1011.96
2022-09-11T09:50:00.351Z,1011.95
2022-09-11T09:51:00.360Z,1011.97
2022-09-11T09:52:04.239Z,1012.05
2022-09-11T09:53:00.307Z,1011.97
2022-09-11T09:54:00.309Z,1012.01
2022-09-11T09:55:00.297Z,1011.94
2022-09-11T09:56:00.292Z,1011.98
2022-09-11T09:57:00.265Z,1011.92
2022-09-11T09:58:00.266Z,1011.90
2022-09-11T09:59:00.239Z,1011.89
2022-09-11T10:00:00.236Z,1011.89
2022-09-11T10:01:00.287Z,1011.87
2022-09-11T10:02:00.372Z,1011.88
2022-09-11T10:03:00.195Z,1011.91
2022-09-11T10:04:00.222Z,1011.89
2022-09-11T10:05:00.177Z,1011.91
2022-09-11T10:06:00.157Z,1011.94
2022-09-11T10:07:00.166Z,1011.95
2022-09-11T10:08:00.152Z,1011.92
2022-09-11T10:09:03.230Z,1011.90
2022-09-11T10:10:00.129Z,1011.91
2022-09-11T10:11:00.156Z,1011.93
2022-09-11T10:12:00.123Z,1011.88
2022-09-11T10:13:18.004Z,1011.91
2022-09-11T10:14:01.087Z,1011.90
2022-09-11T10:15:00.080Z,1011.90
2022-09-11T10:16:00.139Z,1011.94
2022-09-11T10:17:00.057Z,1011.99
2022-09-11T10:18:00.035Z,1011.98
2022-09-11T10:19:00.041Z,1011.96
2022-09-11T10:20:00.019Z,1011.96
2022-09-11T10:21:01.608Z,1011.96
2022-09-11T10:21:59.999Z,1011.93
2022-09-11T10:22:59.993Z,1011.92
2022-09-11T10:23:59.969Z,1011.93
2022-09-11T10:24:59.970Z,1011.93
2022-09-11T10:25:59.950Z,1011.92
2022-09-11T10:26:59.940Z,1011.93
2022-09-11T10:27:59.942Z,1011.89
2022-09-11T10:28:59.923Z,1011.84
2022-09-11T10:29:59.933Z,1011.85
2022-09-11T10:30:59.952Z,1011.87
2022-09-11T10:31:59.887Z,1011.82
2022-09-11T10:33:03.377Z,1011.79
2022-09-11T10:33:59.855Z,1011.83
2022-09-11T10:34:59.853Z,1011.81
2022-09-11T10:35:59.863Z,1011.79
2022-09-11T10:36:59.821Z,1011.84
2022-09-11T10:37:59.838Z,1011.84
2022-09-11T10:38:59.816Z,1011.84
2022-09-11T10:39:59.834Z,1011.83
2022-09-11T10:40:59.779Z,1011.82
2022-09-11T10:41:59.814Z,1011.85
2022-09-11T10:42:59.756Z,1011.79
2022-09-11T10:43:59.768Z,1011.80
2022-09-11T10:44:59.763Z,1011.78
2022-09-11T10:45:59.784Z,1011.79
2022-09-11T10:46:59.720Z,1011.76
2022-09-11T10:47:59.795Z,1011.78
2022-09-11T10:48:59.691Z,1011.75
2022-09-11T10:49:59.679Z,1011.78
2022-09-11T10:50:59.672Z,1011.79
2022-09-11T10:51:59.687Z,1011.76
2022-09-11T10:52:59.645Z,1011.79
2022-09-11T10:53:59.654Z,1011.83
2022-09-11T10:54:59.632Z,1011.82
2022-09-11T10:55:59.614Z,1011.76
2022-09-11T10:56:59.612Z,1011.79
2022-09-11T10:57:59.645Z,1011.76
2022-09-11T10:58:59.591Z,1011.79
2022-09-11T10:59:59.600Z,1011.81
2022-09-11T11:00:59.578Z,1011.73
2022-09-11T11:01:59.563Z,1011.78
2022-09-11T11:02:59.633Z,1011.75
2022-09-11T11:03:59.542Z,1011.75
2022-09-11T11:04:59.519Z,1011.70
2022-09-11T11:05:59.522Z,1011.70
2022-09-11T11:06:59.490Z,1011.66
2022-09-11T11:07:59.495Z,1011.68
2022-09-11T11:08:59.491Z,1011.65
2022-09-11T11:09:59.481Z,1011.66
2022-09-11T11:10:59.465Z,1011.66
2022-09-11T11:11:59.459Z,1011.62
2022-09-11T11:12:59.435Z,1011.59
2022-09-11T11:13:59.484Z,1011.53
2022-09-11T11:14:59.432Z,1011.55
2022-09-11T11:15:59.463Z,1011.54
2022-09-11T11:16:59.380Z,1011.56
2022-09-11T11:17:59.368Z,1011.54
2022-09-11T11:18:59.361Z,1011.57
2022-09-11T11:19:59.446Z,1011.47
2022-09-11T11:20:59.359Z,1011.50
2022-09-11T11:21:59.337Z,1011.52
2022-09-11T11:22:59.326Z,1011.51
2022-09-11T11:23:59.313Z,1011.40
2022-09-11T11:24:59.313Z,1011.49
2022-09-11T11:25:59.303Z,1011.52
2022-09-11T11:26:59.284Z,1011.46
2022-09-11T11:27:59.264Z,1011.52
2022-09-11T11:28:59.281Z,1011.50
2022-09-11T11:29:59.252Z,1011.54
2022-09-11T11:30:59.252Z,1011.60
2022-09-11T11:31:59.255Z,1011.64
2022-09-11T11:32:59.215Z,1011.55
2022-09-11T11:33:59.223Z,1011.63
2022-09-11T11:34:59.190Z,1011.58
2022-09-11T11:35:59.183Z,1011.61
2022-09-11T11:36:59.179Z,1011.58
2022-09-11T11:37:59.166Z,1011.60
2022-09-11T11:38:59.174Z,1011.63
2022-09-11T11:39:59.197Z,1011.62
2022-09-11T11:40:59.207Z,1011.59
2022-09-11T11:41:59.128Z,1011.58
2022-09-11T11:42:59.111Z,1011.57
2022-09-11T11:43:59.104Z,1011.59
2022-09-11T11:44:59.077Z,1011.58
2022-09-11T11:45:59.125Z,1011.59
2022-09-11T11:46:59.063Z,1011.56
2022-09-11T11:47:59.084Z,1011.59
2022-09-11T11:48:59.085Z,1011.58
2022-09-11T11:49:59.042Z,1011.63
2022-09-11T11:50:59.022Z,1011.62
2022-09-11T11:51:59.009Z,1011.58
2022-09-11T11:52:59.006Z,1011.60
2022-09-11T11:53:58.993Z,1011.58
2022-09-11T11:54:58.967Z,1011.64
2022-09-11T11:55:58.974Z,1011.55
2022-09-11T11:56:58.953Z,1011.54
2022-09-11T11:57:58.938Z,1011.56
2022-09-11T11:58:58.935Z,1011.51
2022-09-11T11:59:58.919Z,1011.53
2022-09-11T12:00:58.918Z,1011.54
2022-09-11T12:01:58.939Z,1011.48
2022-09-11T12:02:58.885Z,1011.50
2022-09-11T12:03:58.928Z,1011.51
2022-09-11T12:04:58.869Z,1011.55